createdAt,value
2022-09-22T00:02:42.332Z,100600.78
2022-09-22T00:07:44.096Z,100599.47
2022-09-22T00:12:47.284Z,100593.19
2022-09-22T00:17:48.891Z,100589.78
2022-09-22T00:22:51.243Z,100584.81
2022-09-22T00:27:54.479Z,100584.03
2022-09-22T00:32:56.229Z,100580.81
2022-09-22T00:37:57.820Z,100571.22
2022-09-22T00:43:21.122Z,100572.50
2022-09-22T00:48:25.054Z,100564.88
2022-09-22T00:53:27.201Z,100564.50
2022-09-22T00:58:35.931Z,100559.13
2022-09-22T01:03:39.279Z,100565.22
2022-09-22T01:08:43.648Z,100561.81
2022-09-22T01:13:59.451Z,100554.47
2022-09-22T01:19:48.666Z,100558.88
2022-09-22T01:25:09.773Z,100552.38
2022-09-22T01:30:20.721Z,100549.47
2022-09-22T01:35:35.557Z,100558.22
2022-09-22T01:40:47.072Z,100552.44
2022-09-22T01:45:49.753Z,100556.81
2022-09-22T01:50:56.384Z,100561.16
2022-09-22T01:56:02.956Z,100555.78
2022-09-22T02:01:14.599Z,100554.31
2022-09-22T02:06:23.207Z,100551.59
2022-09-22T02:11:25.087Z,100554.09
2022-09-22T02:16:27.689Z,100551.25
2022-09-22T02:21:29.364Z,100545.69
2022-09-22T02:26:34.124Z,100543.03
2022-09-22T02:31:38.654Z,100547.84
2022-09-22T02:37:37.689Z,100546.88
2022-09-22T02:42:52.183Z,100548.97
2022-09-22T02:48:02.016Z,100552.75
2022-09-22T02:53:11.332Z,100545.19
2022-09-22T02:58:15.286Z,100540.19
2022-09-22T03:03:16.911Z,100534.06
2022-09-22T03:08:18.548Z,100527.09
2022-09-22T03:13:20.258Z,100535.41
2022-09-22T03:18:21.993Z,100535.38
2022-09-22T03:23:23.653Z,100528.00
2022-09-22T03:28:25.355Z,100524.47
2022-09-22T03:33:27.048Z,100525.25
2022-09-22T03:38:28.756Z,100524.88
2022-09-22T03:43:30.420Z,100533.00
2022-09-22T03:48:32.034Z,100525.50
2022-09-22T03:53:33.793Z,100541.34
2022-09-22T03:58:36.571Z,100531.44
2022-09-22T04:03:39.443Z,100535.38
2022-09-22T04:08:41.079Z,100531.84
2022-09-22T04:13:46.179Z,100535.31
2022-09-22T04:18:48.284Z,100531.69
2022-09-22T04:23:49.909Z,100526.66
2022-09-22T04:28:51.554Z,100531.03
2022-09-22T04:33:53.209Z,100532.66
2022-09-22T04:38:55.420Z,100532.38
2022-09-22T04:43:57.168Z,100530.16
2022-09-22T04:48:58.852Z,100539.53
2022-09-22T04:54:00.576Z,100537.31
2022-09-22T04:59:02.757Z,100536.06
2022-09-22T05:04:04.489Z,100545.41
2022-09-22T05:09:06.215Z,100539.84
2022-09-22T05:14:08.046Z,100544.59
2022-09-22T05:19:10.171Z,100552.50
2022-09-22T05:24:11.757Z,100561.47
2022-09-22T05:29:13.382Z,100565.44
2022-09-22T05:34:14.999Z,100572.72
2022-09-22T05:39:16.638Z,100575.03
2022-09-22T05:44:18.363Z,100573.91
2022-09-22T05:49:19.967Z,100576.72
2022-09-22T05:54:23.460Z,100576.53
2022-09-22T05:59:25.196Z,100578.72
2022-09-22T06:04:27.333Z,100584.34
2022-09-22T06:09:28.945Z,100583.50
2022-09-22T06:14:30.570Z,100577.97
2022-09-22T06:19:32.764Z,100570.34
2022-09-22T06:24:34.459Z,100574.69
2022-09-22T06:29:38.000Z,100564.72
2022-09-22T06:34:39.633Z,100574.28
2022-09-22T06:39:41.226Z,100568.94
2022-09-22T06:44:44.530Z,100571.75
2022-09-22T06:49:46.777Z,100572.63
2022-09-22T06:54:50.973Z,100565.16
2022-09-22T06:59:54.356Z,100569.81
2022-09-22T07:04:59.680Z,100577.38
2022-09-22T07:10:01.378Z,100578.09
2022-09-22T07:15:03.096Z,100581.44
2022-09-22T07:20:05.713Z,100573.94
2022-09-22T07:25:08.724Z,100570.50
2022-09-22T07:30:10.953Z,100568.25
2022-09-22T07:35:12.623Z,100567.72
2022-09-22T07:40:14.730Z,100557.81
2022-09-22T07:45:16.769Z,100552.91
2022-09-22T07:50:18.501Z,100553.13
2022-09-22T07:55:25.207Z,100553.81
2022-09-22T08:00:33.002Z,100553.06
2022-09-22T08:05:34.905Z,100543.50
2022-09-22T08:10:36.533Z,100537.56
2022-09-22T08:15:42.244Z,100531.75
2022-09-22T08:20:45.074Z,100538.66
2022-09-22T08:25:46.956Z,100532.75
2022-09-22T08:30:49.028Z,100533.16
2022-09-22T08:35:54.608Z,100536.91
2022-09-22T08:41:17.570Z,100533.16
2022-09-22T08:46:19.282Z,100531.84
2022-09-22T08:51:46.156Z,100536.16
2022-09-22T08:57:19.689Z,100543.75
2022-09-22T09:02:41.999Z,100529.69
2022-09-22T09:08:01.840Z,100532.72
2022-09-22T09:13:22.228Z,100530.84
2022-09-22T09:18:30.893Z,100526.75
2022-09-22T09:29:16.974Z,100533.16
2022-09-22T09:34:24.414Z,100536.97
2022-09-22T09:39:30.717Z,100533.16
2022-09-22T09:44:40.042Z,100529.31
2022-09-22T09:49:41.755Z,100532.91
2022-09-22T09:54:46.267Z,100534.63
2022-09-22T10:00:28.183Z,100526.75
2022-09-22T10:05:32.471Z,100518.09
2022-09-22T10:10:41.356Z,100518.88
2022-09-22T10:15:43.503Z,100526.13
2022-09-22T10:20:45.152Z,100507.38
2022-09-22T10:25:48.361Z,100511.63
2022-09-22T10:31:04.912Z,100509.53
2022-09-22T10:36:12.235Z,100492.75
2022-09-22T10:41:23.313Z,100495.03
2022-09-22T10:46:43.370Z,100500.19
2022-09-22T10:52:09.400Z,100494.66
2022-09-22T10:57:43.934Z,100495.97
2022-09-22T11:03:05.491Z,100495.09
2022-09-22T11:08:31.301Z,100493.41
2022-09-22T11:13:41.910Z,100486.06
2022-09-22T11:19:06.147Z,100487.38
2022-09-22T11:24:32.456Z,100482.81
2022-09-22T11:29:56.270Z,100483.84
2022-09-22T11:35:25.575Z,100479.53
2022-09-22T11:40:41.415Z,100473.00
2022-09-22T11:45:54.356Z,100465.19
2022-09-22T11:51:09.544Z,100465.16
2022-09-22T11:56:33.393Z,100457.56
2022-09-22T12:01:39.054Z,100462.22
2022-09-22T12:06:44.998Z,100451.22
2022-09-22T12:11:46.767Z,100445.81
2022-09-22T12:16:51.414Z,100436.97
2022-09-22T12:21:57.738Z,100427.78
2022-09-22T12:27:11.363Z,100430.22
2022-09-22T12:32:39.553Z,100422.63
2022-09-22T12:37:41.260Z,100414.59
2022-09-22T12:42:49.594Z,100421.50
2022-09-22T12:47:53.928Z,100422.56
2022-09-22T12:53:23.832Z,100425.34
2022-09-22T12:58:28.491Z,100425.31
2022-09-22T13:03:30.692Z,100416.22
2022-09-22T13:08:32.661Z,100421.19
2022-09-22T13:13:42.310Z,100413.06
2022-09-22T13:18:46.872Z,100400.06
2022-09-22T13:23:51.603Z,100409.38
2022-09-22T13:29:05.323Z,100412.75
2022-09-22T13:34:33.469Z,100407.19
2022-09-22T13:39:42.231Z,100411.19
2022-09-22T13:44:54.760Z,100397.41
2022-09-22T13:50:03.284Z,100390.38
2022-09-22T13:55:19.947Z,100390.66
2022-09-22T14:00:26.448Z,100388.19
2022-09-22T14:05:31.879Z,100383.41
2022-09-22T14:10:34.102Z,100376.56
2022-09-22T14:15:47.649Z,100380.53
2022-09-22T14:20:49.378Z,100379.94
2022-09-22T14:25:51.106Z,100378.34
2022-09-22T14:30:53.061Z,100369.44
2022-09-22T14:36:03.125Z,100369.81
2022-09-22T14:41:22.428Z,100371.56
2022-09-22T14:46:36.693Z,100369.50
2022-09-22T14:51:38.340Z,100364.34
2022-09-22T14:56:43.883Z,100353.69
2022-09-22T15:02:07.314Z,100354.78
2022-09-22T15:07:24.752Z,100357.00
2022-09-22T15:12:49.354Z,100357.22
2022-09-22T15:18:11.735Z,100351.81
2022-09-22T15:23:16.548Z,100349.97
2022-09-22T15:28:20.793Z,100345.41
2022-09-22T15:33:22.661Z,100344.19
2022-09-22T15:38:27.605Z,100347.16
2022-09-22T15:43:31.090Z,100359.38
2022-09-22T15:48:38.436Z,100359.16
2022-09-22T15:53:41.655Z,100353.22
2022-09-22T15:58:44.072Z,100351.66
2022-09-22T16:03:46.380Z,100352.50
2022-09-22T16:08:52.689Z,100349.38
2022-09-22T16:13:58.244Z,100342.13
2022-09-22T16:19:00.559Z,100341.94
2022-09-22T16:24:08.650Z,100337.25
2022-09-22T16:29:11.358Z,100333.25
2022-09-22T16:34:13.056Z,100342.41
2022-09-22T16:39:14.710Z,100338.66
2022-09-22T16:44:16.448Z,100345.50
2022-09-22T16:49:20.312Z,100346.56
2022-09-22T16:54:22.097Z,100341.72
2022-09-22T16:59:23.768Z,100346.97
2022-09-22T17:04:25.395Z,100341.06
2022-09-22T17:09:27.372Z,100349.28
2022-09-22T17:14:32.517Z,100348.66
2022-09-22T17:19:34.345Z,100346.69
2022-09-22T17:24:35.994Z,100352.94
2022-09-22T17:29:37.931Z,100361.13
2022-09-22T17:34:41.187Z,100370.13
2022-09-22T17:39:43.645Z,100354.34
2022-09-22T17:44:45.284Z,100363.19
2022-09-22T17:50:05.431Z,100359.44
2022-09-22T17:55:12.671Z,100356.09
2022-09-22T18:00:17.211Z,100358.53
2022-09-22T18:05:21.422Z,100357.69
2022-09-22T18:10:23.531Z,100372.56
2022-09-22T18:15:26.773Z,100370.56
2022-09-22T18:20:28.828Z,100385.75
2022-09-22T18:25:31.723Z,100381.38
2022-09-22T18:30:33.901Z,100383.88
2022-09-22T18:35:35.497Z,100373.03
2022-09-22T18:40:37.154Z,100383.34
2022-09-22T18:45:38.844Z,100385.50
2022-09-22T18:50:41.034Z,100385.31
2022-09-22T18:55:42.620Z,100386.22
2022-09-22T19:00:44.244Z,100381.19
2022-09-22T19:05:45.852Z,100385.00
2022-09-22T19:10:48.400Z,100387.97
2022-09-22T19:15:54.077Z,100385.13
2022-09-22T19:20:58.518Z,100381.63
2022-09-22T19:26:00.144Z,100384.84
2022-09-22T19:31:01.769Z,100382.91
2022-09-22T19:36:03.705Z,100389.34
2022-09-22T19:41:05.360Z,100382.88
2022-09-22T19:46:07.187Z,100376.69
2022-09-22T19:51:08.824Z,100379.50
2022-09-22T19:56:10.432Z,100376.28
2022-09-22T20:01:28.142Z,100382.47
2022-09-22T20:06:30.136Z,100383.59
2022-09-22T20:11:33.457Z,100372.31
2022-09-22T20:16:35.066Z,100380.88
2022-09-22T20:21:37.136Z,100371.03
2022-09-22T20:26:38.852Z,100374.56
2022-09-22T20:31:41.579Z,100375.63
2022-09-22T20:36:43.433Z,100381.38
2022-09-22T20:41:45.074Z,100385.94
2022-09-22T20:46:49.825Z,100375.44
2022-09-22T20:51:51.632Z,100375.78
2022-09-22T20:56:53.397Z,100373.47
2022-09-22T21:01:55.010Z,100373.38
2022-09-22T21:06:57.473Z,100371.22
2022-09-22T21:11:59.082Z,100375.97
2022-09-22T21:17:06.273Z,100365.78
2022-09-22T21:22:07.917Z,100362.13
2022-09-22T21:27:09.526Z,100372.16
2022-09-22T21:32:11.282Z,100362.06
2022-09-22T21:37:14.532Z,100365.84
2022-09-22T21:42:16.122Z,100365.28
2022-09-22T21:47:17.722Z,100360.38
2022-09-22T21:52:19.316Z,100363.09
2022-09-22T21:57:20.899Z,100363.41
2022-09-22T22:02:22.500Z,100360.78
2022-09-22T22:07:24.119Z,100347.38
2022-09-22T22:12:25.828Z,100347.13
2022-09-22T22:17:27.444Z,100353.50
2022-09-22T22:22:29.052Z,100346.56
2022-09-22T22:27:30.687Z,100355.25
2022-09-22T22:32:32.236Z,100351.00
2022-09-22T22:37:33.858Z,100346.91
2022-09-22T22:42:35.486Z,100347.69
2022-09-22T22:47:37.099Z,100348.16
2022-09-22T22:52:41.366Z,100346.34
2022-09-22T22:57:42.982Z,100344.97
2022-09-22T23:02:44.579Z,100336.69
2022-09-22T23:07:46.177Z,100344.38
2022-09-22T23:12:47.864Z,100339.72
2022-09-22T23:17:49.612Z,100342.16
2022-09-22T23:22:51.229Z,100338.75
2022-09-22T23:27:52.980Z,100325.09
2022-09-22T23:32:56.288Z,100322.41
2022-09-22T23:37:58.238Z,100314.34
2022-09-22T23:42:59.970Z,100323.91
2022-09-22T23:48:01.776Z,100317.19
2022-09-22T23:53:03.508Z,100306.28
2022-09-22T23:58:05.347Z,100307.59
